Addy, Washington
Current Conditions -  °F | °C
As of 11:53 PM on Monday 26 Jan 2015 (Local Time) from KDEW Reporting Station
Moderate Fog Moderate Fog  
Wind Chill: 26°   Ceiling: 100
Heat Index: 26°   Visibility: 0.25mi
Dew Point: 26°   Wind: 0mph
Humidity: 100%   Direction: NA
Pressure: 30.01"   Gusts: NA
Location:  48.36°N, 117.84°W
Report Text: KDEW 270753Z AUTO 00000KT 1/4SM FZFG VV001 M03/M03 A3001 RMK AO2 SLP179 T10331033 400831033
Loading
Personal Weather Stations






























Interactive Weather Map New forecast layout! Learn more

10-Day Weather Forecast

Advertisements
Track Severe Weather on mobile